< < Back
Terminal Aerodrome Forecast


Current Version              Previous Versions:   1  2  3  4  5  6  7  8  9  

Terminal Aerodrome Forecast

539
FTUS44 KOHX 011531 AAA
TAFBNA
TAF AMD
KBNA 011531Z 0116/0212 20006KT P6SM SCT050 BKN110
     FM012100 35006KT P6SM SCT050
     FM020900 33004KT 5SM BR SCT015=



Latest METAR

013
SAUS70 KWBC 020300 RRE
MTRBNA
METAR KBNA 020253Z 34005KT 10SM FEW040 SCT250 27/19 A3003 RMK AO2 SLP162
T02670194 53011


USA.gov is the U.S. government's official web portal to all federal, state and local government web resources and services.